createdAt,value
2018-02-18T00:00:09.262Z,98512.45
2018-02-18T00:00:40.885Z,98515.89
2018-02-18T00:01:12.563Z,98512.91
2018-02-18T00:01:44.190Z,98512.49
2018-02-18T00:02:15.822Z,98513.77
2018-02-18T00:02:47.500Z,98516.32
2018-02-18T00:03:19.110Z,98516.36
2018-02-18T00:03:50.736Z,98519.34
2018-02-18T00:04:22.374Z,98524.45
2018-02-18T00:04:53.998Z,98511.25
2018-02-18T00:05:25.626Z,98520.19
2018-02-18T00:05:57.256Z,98518.07
2018-02-18T00:06:28.922Z,98516.41
2018-02-18T00:07:00.642Z,98515.55
2018-02-18T00:07:32.254Z,98515.17
2018-02-18T00:08:03.879Z,98527.52
2018-02-18T00:08:35.502Z,98522.75
2018-02-18T00:09:07.126Z,98520.66
2018-02-18T00:09:38.754Z,98516.83
2018-02-18T00:10:10.378Z,98517.25
2018-02-18T00:10:42.002Z,98519.38
2018-02-18T00:11:13.631Z,98521.09
2018-02-18T00:11:45.270Z,98517.22
2018-02-18T00:12:17.041Z,98515.52
2018-02-18T00:12:48.685Z,98520.63
2018-02-18T00:13:20.318Z,98521.91
2018-02-18T00:13:52.906Z,98513.42
2018-02-18T00:14:30.154Z,98520.66
2018-02-18T00:15:01.796Z,98523.64
2018-02-18T00:15:33.442Z,98522.79
2018-02-18T00:16:05.090Z,98519.77
2018-02-18T00:16:36.761Z,98522.36
2018-02-18T00:17:08.390Z,98520.66
2018-02-18T00:17:40.058Z,98530.03
2018-02-18T00:18:11.686Z,98524.45
2018-02-18T00:18:43.323Z,98527.05
2018-02-18T00:19:14.990Z,98525.77
2018-02-18T00:19:46.618Z,98525.27
2018-02-18T00:20:18.242Z,98532.47
2018-02-18T00:20:49.870Z,98528.24
2018-02-18T00:21:21.498Z,98532.55
2018-02-18T00:21:53.121Z,98532.20
2018-02-18T00:22:24.746Z,98532.23
2018-02-18T00:22:56.378Z,98529.73
2018-02-18T00:23:28.046Z,98535.22
2018-02-18T00:23:59.675Z,98532.63
2018-02-18T00:24:31.306Z,98538.08
2018-02-18T00:25:02.938Z,98531.73
2018-02-18T00:25:34.567Z,98531.73
2018-02-18T00:26:06.191Z,98534.71
2018-02-18T00:26:37.813Z,98538.51
2018-02-18T00:27:09.443Z,98538.97
2018-02-18T00:27:41.068Z,98533.86
2018-02-18T00:28:12.690Z,98532.59
2018-02-18T00:28:44.363Z,98536.42
2018-02-18T00:29:15.995Z,98539.01
2018-02-18T00:29:47.618Z,98532.13
2018-02-18T00:30:19.242Z,98530.45
2018-02-18T00:30:50.866Z,98538.94
2018-02-18T00:31:22.493Z,98538.97
2018-02-18T00:31:54.121Z,98539.36
2018-02-18T00:32:25.747Z,98534.71
2018-02-18T00:32:57.378Z,98538.58
2018-02-18T00:33:29.142Z,98534.33
2018-02-18T00:34:00.771Z,98531.77
2018-02-18T00:34:32.430Z,98539.86
2018-02-18T00:35:04.056Z,98537.23
2018-02-18T00:35:35.687Z,98534.71
2018-02-18T00:36:07.323Z,98536.42
2018-02-18T00:36:38.954Z,98538.08
2018-02-18T00:37:10.602Z,98536.80
2018-02-18T00:37:42.234Z,98534.67
2018-02-18T00:38:13.862Z,98536.38
2018-02-18T00:38:45.543Z,98536.80
2018-02-18T00:39:17.171Z,98540.59
2018-02-18T00:39:48.794Z,98540.17
2018-02-18T00:40:20.430Z,98539.31
2018-02-18T00:40:52.062Z,98535.06
2018-02-18T00:41:23.691Z,98538.89
2018-02-18T00:41:55.318Z,98538.89
2018-02-18T00:42:26.966Z,98537.11
2018-02-18T00:42:58.626Z,98541.80
2018-02-18T00:43:30.259Z,98532.84
2018-02-18T00:44:01.926Z,98546.52
2018-02-18T00:44:33.578Z,98535.88
2018-02-18T00:45:05.198Z,98541.02
2018-02-18T00:45:36.818Z,98538.47
2018-02-18T00:46:08.482Z,98538.42
2018-02-18T00:46:40.106Z,98543.07
2018-02-18T00:47:11.747Z,98537.49
2018-02-18T00:47:43.423Z,98536.69
2018-02-18T00:48:15.055Z,98542.64
2018-02-18T00:48:46.682Z,98546.91
2018-02-18T00:49:18.311Z,98548.69
2018-02-18T00:49:49.950Z,98549.11
2018-02-18T00:50:21.590Z,98541.84
2018-02-18T00:50:53.238Z,98546.94
2018-02-18T00:51:24.906Z,98546.09
2018-02-18T00:51:56.540Z,98546.98
2018-02-18T00:52:28.238Z,98546.98
2018-02-18T00:52:59.886Z,98553.83
2018-02-18T00:53:31.542Z,98548.69
2018-02-18T00:54:03.171Z,98553.37
2018-02-18T00:54:34.798Z,98549.58
2018-02-18T00:55:06.426Z,98551.23
2018-02-18T00:55:38.055Z,98552.52
2018-02-18T00:56:09.683Z,98555.03
2018-02-18T00:56:41.312Z,98553.33
2018-02-18T00:57:12.947Z,98554.61
2018-02-18T00:57:44.630Z,98556.78
2018-02-18T00:58:16.273Z,98556.35
2018-02-18T00:58:47.907Z,98558.91
2018-02-18T00:59:19.531Z,98558.05
2018-02-18T00:59:51.154Z,98555.07
2018-02-18T01:00:22.782Z,98561.46
2018-02-18T01:00:54.410Z,98561.00
2018-02-18T01:01:26.043Z,98563.59
2018-02-18T01:01:57.675Z,98560.61
2018-02-18T01:02:29.302Z,98567.00
2018-02-18T01:03:01.010Z,98549.15
2018-02-18T01:03:32.634Z,98558.87
2018-02-18T01:04:04.258Z,98563.59
2018-02-18T01:04:35.886Z,98560.19
2018-02-18T01:05:07.514Z,98561.04
2018-02-18T01:05:39.134Z,98559.37
2018-02-18T01:06:10.762Z,98561.50
2018-02-18T01:06:42.390Z,98556.78
2018-02-18T01:07:14.014Z,98560.64
2018-02-18T01:07:45.642Z,98567.38
2018-02-18T01:08:17.326Z,98564.40
2018-02-18T01:08:48.959Z,98579.23
2018-02-18T01:09:20.582Z,98565.59
2018-02-18T01:09:52.207Z,98565.17
2018-02-18T01:10:23.831Z,98566.88
2018-02-18T01:10:55.459Z,98565.64
2018-02-18T01:11:27.086Z,98568.63
2018-02-18T01:11:58.710Z,98566.03
2018-02-18T01:12:30.338Z,98561.77
2018-02-18T01:13:01.967Z,98567.30
2018-02-18T01:13:33.648Z,98564.32
2018-02-18T01:14:05.282Z,98571.17
2018-02-18T01:14:36.915Z,98571.17
2018-02-18T01:15:08.538Z,98571.17
2018-02-18T01:15:40.167Z,98571.60
2018-02-18T01:16:11.789Z,98570.32
2018-02-18T01:16:43.414Z,98572.88
2018-02-18T01:17:15.038Z,98565.22
2018-02-18T01:17:46.662Z,98572.06
2018-02-18T01:18:18.293Z,98580.59
2018-02-18T01:18:49.918Z,98570.36
2018-02-18T01:19:21.550Z,98574.23
2018-02-18T01:19:53.222Z,98572.49
2018-02-18T01:20:24.855Z,98572.03
2018-02-18T01:20:56.486Z,98572.03
2018-02-18T01:21:28.117Z,98576.29
2018-02-18T01:21:59.742Z,98569.94
2018-02-18T01:22:31.370Z,98574.16
2018-02-18T01:23:02.998Z,98574.63
2018-02-18T01:23:34.630Z,98577.17
2018-02-18T01:24:06.254Z,98576.72
2018-02-18T01:24:37.883Z,98569.91
2018-02-18T01:25:09.558Z,98577.98
2018-02-18T01:25:41.210Z,98575.47
2018-02-18T01:26:12.838Z,98573.34
2018-02-18T01:26:44.462Z,98570.40
2018-02-18T01:27:16.086Z,98581.01
2018-02-18T01:27:47.714Z,98572.53
2018-02-18T01:28:19.338Z,98570.79
2018-02-18T01:28:50.962Z,98575.90
2018-02-18T01:29:22.582Z,98574.20
2018-02-18T01:29:54.210Z,98571.64
2018-02-18T01:30:25.883Z,98568.23
2018-02-18T01:30:57.510Z,98570.83
2018-02-18T01:31:29.134Z,98573.84
2018-02-18T01:32:00.758Z,98573.81
2018-02-18T01:32:32.386Z,98568.70
2018-02-18T01:33:04.043Z,98573.84
2018-02-18T01:33:35.674Z,98568.70
2018-02-18T01:34:07.302Z,98577.26
2018-02-18T01:34:38.934Z,98571.72
2018-02-18T01:35:10.563Z,98578.95
2018-02-18T01:35:42.230Z,98579.34
2018-02-18T01:36:13.859Z,98574.70
2018-02-18T01:36:45.486Z,98573.42
2018-02-18T01:37:17.114Z,98575.52
2018-02-18T01:37:48.743Z,98572.11
2018-02-18T01:38:20.366Z,98576.37
2018-02-18T01:38:51.998Z,98576.75
2018-02-18T01:39:23.626Z,98583.18
2018-02-18T01:39:55.254Z,98579.81
2018-02-18T01:40:27.026Z,98575.09
2018-02-18T01:40:58.651Z,98571.30
2018-02-18T01:41:30.283Z,98578.07
2018-02-18T01:42:01.905Z,98578.07
2018-02-18T01:42:33.538Z,98578.49
2018-02-18T01:43:05.170Z,98575.09
2018-02-18T01:43:36.799Z,98577.64
2018-02-18T01:44:08.426Z,98578.06
2018-02-18T01:44:40.055Z,98572.14
2018-02-18T01:45:11.682Z,98577.25
2018-02-18T01:45:43.355Z,98578.53
2018-02-18T01:46:14.979Z,98574.70
2018-02-18T01:46:46.602Z,98574.70
2018-02-18T01:47:18.226Z,98578.06
2018-02-18T01:47:49.850Z,98575.09
2018-02-18T01:48:21.522Z,98580.55
2018-02-18T01:48:53.154Z,98576.71
2018-02-18T01:49:24.782Z,98579.69
2018-02-18T01:49:56.411Z,98579.73
2018-02-18T01:50:28.044Z,98576.33
2018-02-18T01:50:59.670Z,98574.66
2018-02-18T01:51:31.298Z,98580.20
2018-02-18T01:52:02.926Z,98581.91
2018-02-18T01:52:34.591Z,98582.33
2018-02-18T01:53:06.264Z,98579.34
2018-02-18T01:53:37.885Z,98586.59
2018-02-18T01:54:09.514Z,98580.63
2018-02-18T01:54:41.138Z,98580.63
2018-02-18T01:55:12.766Z,98583.99
2018-02-18T01:55:44.399Z,98579.34
2018-02-18T01:56:16.026Z,98582.75
2018-02-18T01:56:47.659Z,98584.42
2018-02-18T01:57:19.286Z,98583.56
2018-02-18T01:57:50.959Z,98579.31
2018-02-18T01:58:22.586Z,98586.55
2018-02-18T01:58:54.215Z,98589.99
2018-02-18T01:59:25.886Z,98586.62
2018-02-18T01:59:57.510Z,98586.59
2018-02-18T02:00:29.140Z,98586.16
2018-02-18T02:01:00.782Z,98590.84
2018-02-18T02:01:32.415Z,98586.20
2018-02-18T02:02:04.038Z,98585.34
2018-02-18T02:02:35.657Z,98590.84
2018-02-18T02:03:07.287Z,98584.88
2018-02-18T02:03:38.913Z,98593.41
2018-02-18T02:04:10.581Z,98586.62
2018-02-18T02:04:42.231Z,98585.73
2018-02-18T02:05:13.854Z,98587.91
2018-02-18T02:05:45.478Z,98587.86
2018-02-18T02:06:17.106Z,98592.55
2018-02-18T02:06:48.726Z,98589.14
2018-02-18T02:07:20.355Z,98592.13
2018-02-18T02:07:51.982Z,98595.06
2018-02-18T02:08:23.606Z,98592.55
2018-02-18T02:08:55.410Z,98592.55
2018-02-18T02:09:27.074Z,98592.55
2018-02-18T02:09:58.698Z,98591.70
2018-02-18T02:10:30.331Z,98592.13
2018-02-18T02:11:01.958Z,98593.44
2018-02-18T02:11:33.582Z,98593.83
2018-02-18T02:12:05.206Z,98589.11
2018-02-18T02:12:36.836Z,98589.53
2018-02-18T02:13:08.461Z,98594.25
2018-02-18T02:13:40.095Z,98589.11
2018-02-18T02:14:11.774Z,98589.53
2018-02-18T02:14:43.407Z,98596.80
2018-02-18T02:15:15.031Z,98587.91
2018-02-18T02:15:46.654Z,98590.38
2018-02-18T02:16:18.278Z,98595.49
2018-02-18T02:16:49.907Z,98595.03
2018-02-18T02:17:21.530Z,98595.03
2018-02-18T02:17:53.158Z,98594.60
2018-02-18T02:18:24.790Z,98598.43
2018-02-18T02:18:56.414Z,98596.30
2018-02-18T02:19:28.078Z,98598.90
2018-02-18T02:19:59.711Z,98596.30
2018-02-18T02:20:31.334Z,98599.71
2018-02-18T02:21:02.959Z,98597.16
2018-02-18T02:21:34.582Z,98601.03
2018-02-18T02:22:06.212Z,98598.01
2018-02-18T02:22:37.920Z,98600.56
2018-02-18T02:23:09.545Z,98597.63
2018-02-18T02:23:41.170Z,98599.36
2018-02-18T02:24:12.794Z,98599.40
2018-02-18T02:24:44.431Z,98596.38
2018-02-18T02:25:16.054Z,98601.53
2018-02-18T02:25:47.733Z,98605.33
2018-02-18T02:26:19.362Z,98601.06
2018-02-18T02:26:51.002Z,98599.79
2018-02-18T02:27:22.631Z,98607.45
2018-02-18T02:27:54.258Z,98604.05
2018-02-18T02:28:25.882Z,98606.64
2018-02-18T02:28:57.513Z,98605.36
2018-02-18T02:29:29.138Z,98610.05
2018-02-18T02:30:00.762Z,98609.23
2018-02-18T02:30:32.395Z,98611.36
2018-02-18T02:31:04.023Z,98610.05
2018-02-18T02:31:35.650Z,98608.34
2018-02-18T02:32:07.283Z,98609.59
2018-02-18T02:32:38.915Z,98608.73
2018-02-18T02:33:10.547Z,98610.90
2018-02-18T02:33:42.174Z,98608.34
2018-02-18T02:34:13.846Z,98597.84
2018-02-18T02:34:45.490Z,98609.66
2018-02-18T02:35:17.118Z,98607.56
2018-02-18T02:35:48.747Z,98617.36
2018-02-18T02:36:20.378Z,98615.66
2018-02-18T02:36:52.001Z,98611.86
2018-02-18T02:37:23.650Z,98611.01
2018-02-18T02:37:55.294Z,98614.84
2018-02-18T02:38:26.946Z,98613.14
2018-02-18T02:38:58.574Z,98614.02
2018-02-18T02:39:30.243Z,98616.12
2018-02-18T02:40:01.910Z,98616.16
2018-02-18T02:40:33.540Z,98614.45
2018-02-18T02:41:05.173Z,98612.72
2018-02-18T02:41:36.803Z,98610.16
2018-02-18T02:42:08.430Z,98614.45
2018-02-18T02:42:40.058Z,98616.16
2018-02-18T02:43:11.682Z,98616.13
2018-02-18T02:43:43.391Z,98611.02
2018-02-18T02:44:15.018Z,98613.17
2018-02-18T02:44:46.775Z,98619.59
2018-02-18T02:45:18.406Z,98616.19
2018-02-18T02:45:50.039Z,98614.06
2018-02-18T02:46:21.666Z,98616.16
2018-02-18T02:46:53.290Z,98614.45
2018-02-18T02:47:24.914Z,98609.80
2018-02-18T02:47:56.539Z,98616.62
2018-02-18T02:48:28.221Z,98617.05
2018-02-18T02:48:59.858Z,98617.08
2018-02-18T02:49:31.483Z,98620.06
2018-02-18T02:50:03.118Z,98615.34
2018-02-18T02:50:34.747Z,98614.45
2018-02-18T02:51:06.384Z,98617.44
2018-02-18T02:51:38.007Z,98613.17
2018-02-18T02:52:09.643Z,98615.27
2018-02-18T02:52:41.270Z,98613.17
2018-02-18T02:53:12.894Z,98612.78
2018-02-18T02:53:44.563Z,98615.34
2018-02-18T02:54:16.194Z,98615.34
2018-02-18T02:54:47.817Z,98615.34
2018-02-18T02:55:19.458Z,98616.19
2018-02-18T02:55:51.082Z,98620.48
2018-02-18T02:56:22.707Z,98614.48
2018-02-18T02:56:54.330Z,98617.89
2018-02-18T02:57:25.954Z,98617.47
2018-02-18T02:57:57.582Z,98616.62
2018-02-18T02:58:29.245Z,98622.11
2018-02-18T02:59:00.871Z,98624.67
2018-02-18T02:59:32.503Z,98625.56
2018-02-18T03:00:04.134Z,98622.58
2018-02-18T03:00:35.764Z,98614.95
2018-02-18T03:01:07.404Z,98621.30
2018-02-18T03:01:39.030Z,98623.46
2018-02-18T03:02:10.659Z,98628.11
2018-02-18T03:02:42.292Z,98622.58
2018-02-18T03:03:13.919Z,98624.24
2018-02-18T03:03:45.554Z,98623.36
2018-02-18T03:04:17.231Z,98624.17
2018-02-18T03:04:48.854Z,98628.47
2018-02-18T03:05:20.482Z,98625.91
2018-02-18T03:05:52.105Z,98625.52
2018-02-18T03:06:23.730Z,98623.39
2018-02-18T03:06:55.362Z,98620.80
2018-02-18T03:07:26.990Z,98627.61
2018-02-18T03:07:58.618Z,98630.17
2018-02-18T03:08:30.252Z,98628.47
2018-02-18T03:09:01.936Z,98628.89
2018-02-18T03:09:33.586Z,98630.16
2018-02-18T03:10:05.227Z,98634.81
2018-02-18T03:10:36.855Z,98627.19
2018-02-18T03:11:08.477Z,98629.70
2018-02-18T03:11:40.102Z,98632.72
2018-02-18T03:12:11.726Z,98634.89
2018-02-18T03:12:43.395Z,98632.77
2018-02-18T03:13:15.023Z,98631.95
2018-02-18T03:13:46.651Z,98631.95
2018-02-18T03:14:18.282Z,98631.95
2018-02-18T03:14:49.906Z,98635.35
2018-02-18T03:15:21.530Z,98634.96
2018-02-18T03:15:53.163Z,98640.06
2018-02-18T03:16:24.825Z,98639.18
2018-02-18T03:16:56.455Z,98636.59
2018-02-18T03:17:28.079Z,98637.88
2018-02-18T03:17:59.706Z,98638.76
2018-02-18T03:18:31.335Z,98645.14
2018-02-18T03:19:02.958Z,98639.18
2018-02-18T03:19:34.622Z,98641.73
2018-02-18T03:20:06.246Z,98640.92
2018-02-18T03:20:37.874Z,98641.73
2018-02-18T03:21:10.505Z,98649.40
2018-02-18T03:21:42.134Z,98644.36
2018-02-18T03:22:13.758Z,98642.62
2018-02-18T03:22:45.382Z,98643.05
2018-02-18T03:23:17.006Z,98641.31
2018-02-18T03:23:48.678Z,98644.33
2018-02-18T03:24:20.310Z,98643.51
2018-02-18T03:24:51.933Z,98648.19
2018-02-18T03:25:23.557Z,98649.47
2018-02-18T03:25:55.186Z,98646.88
2018-02-18T03:26:26.810Z,98648.58
2018-02-18T03:26:58.441Z,98649.40
2018-02-18T03:27:30.066Z,98648.12
2018-02-18T03:28:01.694Z,98647.27
2018-02-18T03:28:33.318Z,98653.66
2018-02-18T03:29:04.989Z,98652.80
2018-02-18T03:29:36.622Z,98654.08
2018-02-18T03:30:08.255Z,98654.11
2018-02-18T03:30:39.886Z,98654.97
2018-02-18T03:31:11.511Z,98660.08
2018-02-18T03:31:43.143Z,98654.12
2018-02-18T03:32:14.766Z,98650.74
2018-02-18T03:32:46.396Z,98647.34
2018-02-18T03:33:18.022Z,98654.51
2018-02-18T03:33:49.654Z,98657.95
2018-02-18T03:34:21.318Z,98651.98
2018-02-18T03:34:52.942Z,98658.34
2018-02-18T03:35:24.566Z,98659.23
2018-02-18T03:35:56.194Z,98660.92
2018-02-18T03:36:27.823Z,98659.65
2018-02-18T03:36:59.451Z,98661.39
2018-02-18T03:37:31.074Z,98657.98
2018-02-18T03:38:02.737Z,98658.83
2018-02-18T03:38:34.383Z,98658.41
2018-02-18T03:39:06.006Z,98660.95
2018-02-18T03:39:37.678Z,98660.95
2018-02-18T03:40:09.342Z,98663.09
2018-02-18T03:40:40.974Z,98663.91
2018-02-18T03:41:12.602Z,98658.83
2018-02-18T03:41:44.226Z,98663.91
2018-02-18T03:42:15.887Z,98658.38
2018-02-18T03:42:47.511Z,98664.33
2018-02-18T03:43:19.135Z,98666.03
2018-02-18T03:43:50.761Z,98663.48
2018-02-18T03:44:22.381Z,98663.05
2018-02-18T03:44:54.005Z,98663.48
2018-02-18T03:45:25.635Z,98664.33
2018-02-18T03:45:57.258Z,98661.78
2018-02-18T03:46:28.886Z,98663.52
2018-02-18T03:47:00.510Z,98666.92
2018-02-18T03:47:32.142Z,98662.63
2018-02-18T03:48:03.770Z,98668.59
2018-02-18T03:48:35.397Z,98665.61
2018-02-18T03:49:07.026Z,98669.02
2018-02-18T03:49:38.654Z,98672.42
2018-02-18T03:50:10.339Z,98668.16
2018-02-18T03:50:41.969Z,98668.59
2018-02-18T03:51:13.594Z,98667.73
2018-02-18T03:51:45.226Z,98672.39
2018-02-18T03:52:16.854Z,98669.44
2018-02-18T03:52:48.479Z,98665.61
2018-02-18T03:53:20.101Z,98670.72
2018-02-18T03:53:51.734Z,98668.59
2018-02-18T03:54:23.358Z,98670.72
2018-02-18T03:54:54.986Z,98662.63
2018-02-18T03:55:26.674Z,98671.53
2018-02-18T03:55:58.304Z,98677.92
2018-02-18T03:56:29.942Z,98669.02
2018-02-18T03:57:01.565Z,98671.14
2018-02-18T03:57:33.194Z,98679.23
2018-02-18T03:58:04.827Z,98667.73
2018-02-18T03:58:36.450Z,98673.23
2018-02-18T03:59:08.073Z,98670.69
2018-02-18T03:59:39.703Z,98674.09
2018-02-18T04:00:11.330Z,98674.55
2018-02-18T04:00:42.994Z,98678.38
2018-02-18T04:01:14.623Z,98675.80
2018-02-18T04:01:46.269Z,98678.38
2018-02-18T04:02:17.894Z,98675.83
2018-02-18T04:02:49.535Z,98679.20
2018-02-18T04:03:21.158Z,98676.22
2018-02-18T04:03:52.790Z,98677.04
2018-02-18T04:04:24.416Z,98673.66
2018-02-18T04:04:56.046Z,98680.48
2018-02-18T04:05:27.670Z,98671.11
2018-02-18T04:05:59.338Z,98681.75
2018-02-18T04:06:30.962Z,98681.33
2018-02-18T04:07:02.590Z,98674.98
2018-02-18T04:07:34.214Z,98677.11
2018-02-18T04:08:05.837Z,98679.66
2018-02-18T04:08:37.458Z,98680.12
2018-02-18T04:09:09.130Z,98677.56
2018-02-18T04:09:40.755Z,98683.09
2018-02-18T04:10:12.378Z,98672.03
2018-02-18T04:10:43.998Z,98677.11
2018-02-18T04:11:15.627Z,98676.28
2018-02-18T04:11:47.258Z,98677.98
2018-02-18T04:12:18.886Z,98678.88
2018-02-18T04:12:50.514Z,98676.74
2018-02-18T04:13:22.140Z,98678.02
2018-02-18T04:13:53.779Z,98677.56
2018-02-18T04:14:25.401Z,98686.50
2018-02-18T04:14:57.026Z,98681.84
2018-02-18T04:15:28.666Z,98677.59
2018-02-18T04:16:00.289Z,98679.72
2018-02-18T04:16:31.919Z,98680.15
2018-02-18T04:17:03.710Z,98677.63
2018-02-18T04:17:35.340Z,98681.84
2018-02-18T04:18:06.974Z,98678.88
2018-02-18T04:18:38.597Z,98678.44
2018-02-18T04:19:10.226Z,98682.25
2018-02-18T04:19:42.486Z,98684.83
2018-02-18T04:20:14.119Z,98677.17
2018-02-18T04:20:45.747Z,98679.30
2018-02-18T04:21:17.382Z,98675.89
2018-02-18T04:21:49.005Z,98678.88
2018-02-18T04:22:20.635Z,98678.02
2018-02-18T04:22:52.311Z,98682.28
2018-02-18T04:23:23.933Z,98678.91
2018-02-18T04:23:55.558Z,98673.34
2018-02-18T04:24:27.418Z,98683.13
2018-02-18T04:24:59.042Z,98676.74
2018-02-18T04:25:30.667Z,98678.44
2018-02-18T04:26:02.290Z,98678.91
2018-02-18T04:26:33.910Z,98677.17
2018-02-18T04:27:05.539Z,98680.97
2018-02-18T04:27:37.167Z,98683.52
2018-02-18T04:28:08.794Z,98683.49
2018-02-18T04:28:40.418Z,98685.19
2018-02-18T04:29:12.051Z,98681.33
2018-02-18T04:29:43.722Z,98680.45
2018-02-18T04:30:15.341Z,98682.15
2018-02-18T04:30:47.019Z,98682.58
2018-02-18T04:31:18.642Z,98682.61
2018-02-18T04:31:50.266Z,98682.18
2018-02-18T04:32:21.889Z,98682.18
2018-02-18T04:32:53.514Z,98683.42
2018-02-18T04:33:25.142Z,98684.31
2018-02-18T04:33:56.766Z,98685.16
2018-02-18T04:34:28.386Z,98678.77
2018-02-18T04:35:00.015Z,98687.72
2018-02-18T04:35:31.638Z,98680.91
2018-02-18T04:36:03.410Z,98687.25
2018-02-18T04:36:35.043Z,98686.02
2018-02-18T04:37:06.680Z,98675.80
2018-02-18T04:37:38.306Z,98680.91
2018-02-18T04:38:09.931Z,98685.59
2018-02-18T04:38:41.554Z,98680.05
2018-02-18T04:39:13.186Z,98684.34
2018-02-18T04:39:44.820Z,98680.52
2018-02-18T04:40:16.450Z,98681.36
2018-02-18T04:40:48.131Z,98682.61
2018-02-18T04:41:19.754Z,98681.78
2018-02-18T04:41:51.378Z,98680.94
2018-02-18T04:42:23.006Z,98682.61
2018-02-18T04:42:54.636Z,98686.86
2018-02-18T04:43:26.266Z,98682.15
2018-02-18T04:43:57.890Z,98682.15
2018-02-18T04:44:29.514Z,98684.28
2018-02-18T04:45:01.138Z,98682.15
2018-02-18T04:45:32.767Z,98685.55
2018-02-18T04:46:04.430Z,98679.20
2018-02-18T04:46:36.057Z,98687.72
2018-02-18T04:47:07.687Z,98689.42
2018-02-18T04:47:39.310Z,98683.91
2018-02-18T04:48:11.039Z,98686.02
2018-02-18T04:48:42.668Z,98686.41
2018-02-18T04:49:14.286Z,98686.02
2018-02-18T04:49:45.918Z,98691.97
2018-02-18T04:50:17.586Z,98693.25
2018-02-18T04:50:49.210Z,98690.27
2018-02-18T04:51:20.834Z,98691.55
2018-02-18T04:51:52.467Z,98691.16
2018-02-18T04:52:24.125Z,98690.27
2018-02-18T04:52:55.802Z,98692.86
2018-02-18T04:53:27.426Z,98689.87
2018-02-18T04:53:59.055Z,98695.87
2018-02-18T04:54:30.686Z,98692.46
2018-02-18T04:55:02.326Z,98692.03
2018-02-18T04:55:33.951Z,98696.30
2018-02-18T04:56:05.574Z,98694.56
2018-02-18T04:56:37.201Z,98697.14
2018-02-18T04:57:08.842Z,98700.55
2018-02-18T04:57:40.466Z,98694.16
2018-02-18T04:58:12.146Z,98696.30
2018-02-18T04:58:43.778Z,98692.03
2018-02-18T04:59:15.406Z,98703.89
2018-02-18T04:59:47.037Z,98702.62
2018-02-18T05:00:18.664Z,98698.36
2018-02-18T05:00:50.294Z,98699.21
2018-02-18T05:01:21.917Z,98700.48
2018-02-18T05:01:53.542Z,98704.29
2018-02-18T05:02:25.166Z,98701.77
2018-02-18T05:02:56.790Z,98700.88
2018-02-18T05:03:28.471Z,98702.16
2018-02-18T05:04:00.098Z,98699.17
2018-02-18T05:04:31.726Z,98707.72
2018-02-18T05:05:03.356Z,98704.75
2018-02-18T05:05:34.982Z,98707.33
2018-02-18T05:06:06.610Z,98704.34
2018-02-18T05:06:38.234Z,98706.91
2018-02-18T05:07:09.894Z,98698.00
2018-02-18T05:07:41.518Z,98706.94
2018-02-18T05:08:13.143Z,98708.21
2018-02-18T05:08:44.769Z,98707.36
2018-02-18T05:09:16.389Z,98708.64
2018-02-18T05:09:48.009Z,98710.31
2018-02-18T05:10:19.630Z,98708.61
2018-02-18T05:10:51.258Z,98707.76
2018-02-18T05:11:22.881Z,98714.99
2018-02-18T05:11:54.509Z,98712.05
2018-02-18T05:12:26.138Z,98713.35
2018-02-18T05:12:57.761Z,98712.92
2018-02-18T05:13:29.433Z,98709.55
2018-02-18T05:14:01.063Z,98710.80
2018-02-18T05:14:32.691Z,98709.95
2018-02-18T05:15:04.318Z,98707.81
2018-02-18T05:15:35.942Z,98708.70
2018-02-18T05:16:07.586Z,98716.39
2018-02-18T05:16:39.214Z,98713.37
2018-02-18T05:17:10.842Z,98710.83
2018-02-18T05:17:42.471Z,98709.95
2018-02-18T05:18:14.094Z,98710.38
2018-02-18T05:18:45.762Z,98712.08
2018-02-18T05:19:17.442Z,98706.97
2018-02-18T05:19:49.070Z,98709.12
2018-02-18T05:20:20.697Z,98710.41
2018-02-18T05:20:52.322Z,98708.67
2018-02-18T05:21:23.954Z,98709.95
2018-02-18T05:21:55.583Z,98709.58
2018-02-18T05:22:27.217Z,98708.27
2018-02-18T05:22:58.846Z,98712.10
2018-02-18T05:23:30.469Z,98707.42
2018-02-18T05:24:02.097Z,98713.38
2018-02-18T05:24:33.766Z,98712.11
2018-02-18T05:25:05.389Z,98710.80
2018-02-18T05:25:37.018Z,98705.27
2018-02-18T05:26:08.643Z,98710.83
2018-02-18T05:26:40.265Z,98712.53
2018-02-18T05:27:11.892Z,98708.73
2018-02-18T05:27:43.517Z,98712.95
2018-02-18T05:28:15.143Z,98710.86
2018-02-18T05:28:46.811Z,98717.66
2018-02-18T05:29:18.446Z,98718.09
2018-02-18T05:29:50.069Z,98713.84
2018-02-18T05:30:21.694Z,98718.48
2018-02-18T05:30:53.317Z,98716.36
2018-02-18T05:31:25.006Z,98720.62
2018-02-18T05:31:56.629Z,98718.06
2018-02-18T05:32:28.539Z,98714.23
2018-02-18T05:33:00.170Z,98719.31
2018-02-18T05:33:31.798Z,98719.67
2018-02-18T05:34:03.421Z,98717.97
2018-02-18T05:34:35.046Z,98720.53
2018-02-18T05:35:06.670Z,98720.50
2018-02-18T05:35:38.298Z,98723.91
2018-02-18T05:36:09.922Z,98722.59
2018-02-18T05:36:41.611Z,98721.77
2018-02-18T05:37:13.244Z,98722.20
2018-02-18T05:37:44.870Z,98721.80
2018-02-18T05:38:16.499Z,98727.28
2018-02-18T05:38:48.126Z,98725.58
2018-02-18T05:39:19.749Z,98722.20
2018-02-18T05:39:51.383Z,98725.18
2018-02-18T05:40:23.009Z,98727.28
2018-02-18T05:40:54.633Z,98728.53
2018-02-18T05:41:26.263Z,98729.41
2018-02-18T05:41:57.946Z,98726.85
2018-02-18T05:42:29.574Z,98726.00
2018-02-18T05:43:01.203Z,98730.66
2018-02-18T05:43:32.825Z,98729.41
2018-02-18T05:44:04.490Z,98731.50
2018-02-18T05:44:36.114Z,98729.83
2018-02-18T05:45:07.737Z,98728.98
2018-02-18T05:45:39.366Z,98729.38
2018-02-18T05:46:10.994Z,98731.53
2018-02-18T05:46:42.617Z,98734.09
2018-02-18T05:47:14.282Z,98735.80
2018-02-18T05:47:45.914Z,98732.78
2018-02-18T05:48:17.539Z,98727.64
2018-02-18T05:48:49.206Z,98733.67
2018-02-18T05:49:20.830Z,98728.16
2018-02-18T05:49:52.450Z,98739.26
2018-02-18T05:50:24.073Z,98740.14
2018-02-18T05:50:55.702Z,98738.10
2018-02-18T05:51:27.335Z,98739.41
2018-02-18T05:51:58.970Z,98738.07
2018-02-18T05:52:30.603Z,98737.19
2018-02-18T05:53:02.226Z,98737.59
2018-02-18T05:53:33.899Z,98744.82
2018-02-18T05:54:05.527Z,98738.41
2018-02-18T05:54:37.158Z,98735.46
2018-02-18T05:55:08.791Z,98744.40
2018-02-18T05:55:40.475Z,98743.13
2018-02-18T05:56:12.110Z,98742.69
2018-02-18T05:56:43.742Z,98746.53
2018-02-18T05:57:15.366Z,98744.40
2018-02-18T05:57:46.990Z,98745.25
2018-02-18T05:58:18.619Z,98743.13
2018-02-18T05:58:50.250Z,98743.97
2018-02-18T05:59:21.879Z,98741.02
2018-02-18T05:59:53.510Z,98749.08
2018-02-18T06:00:25.138Z,98744.37
2018-02-18T06:00:56.814Z,98751.18
2018-02-18T06:01:28.437Z,98750.76
2018-02-18T06:02:00.062Z,98751.64
2018-02-18T06:02:31.754Z,98750.78
2018-02-18T06:03:03.377Z,98749.08
2018-02-18T06:03:35.002Z,98749.11
2018-02-18T06:04:06.635Z,98748.69
2018-02-18T06:04:38.261Z,98750.81
2018-02-18T06:05:09.885Z,98752.12
2018-02-18T06:05:41.574Z,98751.23
2018-02-18T06:06:13.202Z,98752.55
2018-02-18T06:06:44.825Z,98734.33
2018-02-18T06:07:16.445Z,98747.89
2018-02-18T06:07:48.110Z,98747.86
2018-02-18T06:08:19.741Z,98748.28
2018-02-18T06:08:51.370Z,98751.69
2018-02-18T06:09:23.001Z,98743.17
2018-02-18T06:09:54.649Z,98749.14
2018-02-18T06:10:26.314Z,98753.42
2018-02-18T06:10:57.942Z,98754.25
2018-02-18T06:11:29.569Z,98756.34